createdAt,value
2022-11-26T00:00:32.820Z,99.48
2022-11-26T00:02:35.683Z,99.43
2022-11-26T00:04:38.610Z,99.57
2022-11-26T00:06:44.953Z,99.56
2022-11-26T00:08:47.616Z,99.52
2022-11-26T00:10:52.865Z,99.69
2022-11-26T00:12:56.208Z,100.00
2022-11-26T00:15:00.375Z,100.00
2022-11-26T00:17:03.113Z,100.00
2022-11-26T00:19:06.152Z,99.89
2022-11-26T00:21:23.108Z,100.00
2022-11-26T00:23:28.509Z,100.00
2022-11-26T00:25:39.061Z,99.98
2022-11-26T00:27:41.784Z,100.00
2022-11-26T00:29:44.457Z,100.00
2022-11-26T00:31:47.139Z,100.00
2022-11-26T00:33:49.996Z,100.00
2022-11-26T00:35:59.377Z,100.00
2022-11-26T00:38:03.043Z,100.00
2022-11-26T00:40:06.434Z,99.94
2022-11-26T00:42:11.018Z,100.00
2022-11-26T00:44:21.566Z,100.00
2022-11-26T00:46:24.271Z,100.00
2022-11-26T00:48:26.865Z,100.00
2022-11-26T00:50:43.874Z,100.00
2022-11-26T00:52:49.208Z,100.00
2022-11-26T00:54:51.822Z,100.00
2022-11-26T00:56:55.154Z,100.00
2022-11-26T00:58:58.061Z,100.00
2022-11-26T01:01:00.781Z,100.00
2022-11-26T01:03:03.552Z,100.00
2022-11-26T01:05:08.686Z,100.00
2022-11-26T01:07:11.450Z,100.00
2022-11-26T01:09:19.634Z,100.00
2022-11-26T01:11:23.824Z,100.00
2022-11-26T01:13:27.522Z,100.00
2022-11-26T01:15:30.197Z,100.00
2022-11-26T01:17:32.750Z,100.00
2022-11-26T01:19:36.561Z,100.00
2022-11-26T01:21:39.592Z,100.00
2022-11-26T01:23:42.415Z,100.00
2022-11-26T01:25:46.649Z,100.00
2022-11-26T01:27:49.870Z,100.00
2022-11-26T01:29:52.463Z,99.84
2022-11-26T01:31:55.122Z,100.00
2022-11-26T01:33:58.398Z,100.00
2022-11-26T01:36:01.083Z,99.98
2022-11-26T01:38:04.721Z,99.80
2022-11-26T01:40:25.491Z,100.00
2022-11-26T01:42:51.091Z,99.71
2022-11-26T01:44:53.681Z,99.86
2022-11-26T01:46:57.322Z,99.86
2022-11-26T01:49:21.381Z,99.97
2022-11-26T01:51:27.463Z,100.00
2022-11-26T01:53:59.218Z,100.00
2022-11-26T01:56:14.221Z,100.00
2022-11-26T01:58:21.785Z,100.00
2022-11-26T02:00:24.667Z,100.00
2022-11-26T02:02:30.185Z,100.00
2022-11-26T02:04:56.736Z,100.00
2022-11-26T02:07:00.028Z,99.93
2022-11-26T02:09:06.350Z,100.00
2022-11-26T02:11:18.491Z,100.00
2022-11-26T02:13:41.380Z,100.00
2022-11-26T02:15:55.034Z,100.00
2022-11-26T02:18:03.489Z,100.00
2022-11-26T02:20:31.007Z,100.00
2022-11-26T02:22:48.451Z,100.00
2022-11-26T02:25:04.290Z,100.00
2022-11-26T02:27:51.410Z,100.00
2022-11-26T02:30:12.439Z,100.00
2022-11-26T02:32:20.981Z,100.00
2022-11-26T02:34:34.260Z,100.00
2022-11-26T02:36:52.372Z,100.00
2022-11-26T02:38:55.012Z,100.00
2022-11-26T02:40:57.881Z,100.00
2022-11-26T02:43:00.467Z,100.00
2022-11-26T02:45:10.487Z,100.00
2022-11-26T02:47:16.239Z,100.00
2022-11-26T02:49:22.388Z,100.00
2022-11-26T02:51:32.005Z,100.00
2022-11-26T02:53:39.479Z,100.00
2022-11-26T02:55:49.085Z,100.00
2022-11-26T02:57:52.610Z,100.00
2022-11-26T02:59:56.009Z,100.00
2022-11-26T03:02:05.144Z,100.00
2022-11-26T03:04:13.038Z,100.00
2022-11-26T03:06:18.277Z,100.00
2022-11-26T03:08:21.506Z,100.00
2022-11-26T03:10:29.752Z,100.00
2022-11-26T03:12:32.525Z,100.00
2022-11-26T03:14:35.340Z,100.00
2022-11-26T03:16:38.260Z,100.00
2022-11-26T03:18:41.117Z,100.00
2022-11-26T03:20:43.732Z,100.00
2022-11-26T03:22:46.334Z,100.00
2022-11-26T03:24:49.027Z,100.00
2022-11-26T03:26:51.695Z,100.00
2022-11-26T03:28:54.244Z,100.00
2022-11-26T03:30:56.970Z,100.00
2022-11-26T03:32:59.617Z,100.00
2022-11-26T03:35:02.432Z,100.00
2022-11-26T03:37:06.172Z,100.00
2022-11-26T03:39:08.831Z,100.00
2022-11-26T03:41:11.543Z,100.00
2022-11-26T03:43:14.166Z,100.00
2022-11-26T03:45:16.762Z,100.00
2022-11-26T03:47:19.451Z,100.00
2022-11-26T03:49:22.137Z,100.00
2022-11-26T03:51:24.836Z,100.00
2022-11-26T03:53:27.808Z,100.00
2022-11-26T03:55:30.376Z,100.00
2022-11-26T03:57:33.109Z,100.00
2022-11-26T03:59:35.852Z,100.00
2022-11-26T04:01:38.532Z,100.00
2022-11-26T04:03:41.568Z,100.00
2022-11-26T04:05:44.254Z,100.00
2022-11-26T04:07:46.903Z,100.00
2022-11-26T04:09:49.571Z,100.00
2022-11-26T04:11:52.323Z,100.00
2022-11-26T04:13:54.953Z,100.00
2022-11-26T04:15:57.580Z,100.00
2022-11-26T04:18:00.251Z,100.00
2022-11-26T04:20:03.203Z,100.00
2022-11-26T04:22:06.173Z,100.00
2022-11-26T04:24:09.132Z,100.00
2022-11-26T04:26:11.736Z,100.00
2022-11-26T04:28:15.338Z,100.00
2022-11-26T04:30:18.208Z,100.00
2022-11-26T04:32:21.084Z,100.00
2022-11-26T04:34:23.692Z,100.00
2022-11-26T04:36:26.491Z,100.00
2022-11-26T04:38:29.087Z,100.00
2022-11-26T04:40:31.949Z,100.00
2022-11-26T04:42:34.987Z,100.00
2022-11-26T04:44:37.777Z,100.00
2022-11-26T04:46:40.599Z,100.00
2022-11-26T04:48:43.263Z,100.00
2022-11-26T04:50:46.104Z,100.00
2022-11-26T04:52:49.521Z,100.00
2022-11-26T04:54:52.181Z,100.00
2022-11-26T04:56:54.777Z,100.00
2022-11-26T04:58:57.404Z,100.00
2022-11-26T05:01:00.771Z,100.00
2022-11-26T05:03:03.491Z,100.00
2022-11-26T05:05:06.527Z,100.00
2022-11-26T05:07:09.376Z,100.00
2022-11-26T05:09:12.407Z,100.00
2022-11-26T05:11:15.093Z,100.00
2022-11-26T05:13:17.723Z,100.00
2022-11-26T05:15:20.696Z,100.00
2022-11-26T05:17:23.261Z,100.00
2022-11-26T05:19:26.015Z,100.00
2022-11-26T05:21:28.663Z,100.00
2022-11-26T05:23:31.219Z,100.00
2022-11-26T05:25:33.982Z,100.00
2022-11-26T05:27:36.905Z,100.00
2022-11-26T05:29:39.561Z,100.00
2022-11-26T05:31:42.369Z,100.00
2022-11-26T05:33:45.131Z,100.00
2022-11-26T05:35:47.749Z,100.00
2022-11-26T05:37:50.513Z,100.00
2022-11-26T05:39:53.184Z,100.00
2022-11-26T05:41:55.874Z,100.00
2022-11-26T05:43:58.654Z,100.00
2022-11-26T05:46:06.386Z,100.00
2022-11-26T05:48:09.138Z,100.00
2022-11-26T05:50:12.460Z,100.00
2022-11-26T05:52:15.348Z,100.00
2022-11-26T05:54:18.325Z,100.00
2022-11-26T05:56:21.017Z,100.00
2022-11-26T05:58:23.733Z,100.00
2022-11-26T06:00:26.711Z,100.00
2022-11-26T06:02:29.849Z,100.00
2022-11-26T06:04:32.866Z,100.00
2022-11-26T06:06:35.815Z,100.00
2022-11-26T06:08:38.471Z,100.00
2022-11-26T06:10:44.822Z,100.00
2022-11-26T06:12:47.449Z,100.00
2022-11-26T06:14:50.256Z,100.00
2022-11-26T06:16:52.964Z,100.00
2022-11-26T06:18:56.434Z,100.00
2022-11-26T06:21:03.898Z,100.00
2022-11-26T06:23:06.483Z,100.00
2022-11-26T06:25:11.056Z,100.00
2022-11-26T06:27:13.745Z,100.00
2022-11-26T06:29:16.807Z,100.00
2022-11-26T06:31:19.466Z,100.00
2022-11-26T06:33:22.389Z,100.00
2022-11-26T06:35:25.157Z,100.00
2022-11-26T06:37:27.869Z,100.00
2022-11-26T06:39:30.617Z,100.00
2022-11-26T06:41:36.565Z,100.00
2022-11-26T06:43:41.237Z,100.00
2022-11-26T06:45:43.948Z,100.00
2022-11-26T06:47:48.344Z,100.00
2022-11-26T06:49:51.038Z,100.00
2022-11-26T06:51:54.293Z,100.00
2022-11-26T06:53:57.146Z,100.00
2022-11-26T06:56:05.497Z,100.00
2022-11-26T06:58:08.122Z,100.00
2022-11-26T07:00:11.594Z,99.81
2022-11-26T07:02:14.364Z,100.00
2022-11-26T07:04:17.071Z,99.97
2022-11-26T07:06:24.184Z,99.96
2022-11-26T07:08:27.088Z,99.58
2022-11-26T07:10:30.287Z,99.71
2022-11-26T07:12:32.981Z,99.60
2022-11-26T07:14:37.143Z,99.96
2022-11-26T07:16:41.339Z,99.36
2022-11-26T07:18:47.618Z,99.74
2022-11-26T07:20:50.298Z,99.70
2022-11-26T07:22:55.906Z,99.65
2022-11-26T07:24:58.469Z,99.56
2022-11-26T07:27:01.235Z,99.24
2022-11-26T07:29:04.221Z,100.00
2022-11-26T07:31:17.007Z,99.76
2022-11-26T07:33:20.052Z,99.37
2022-11-26T07:35:22.718Z,99.87
2022-11-26T07:37:25.315Z,99.82
2022-11-26T07:39:27.970Z,99.37
2022-11-26T07:41:31.228Z,100.00
2022-11-26T07:43:38.756Z,100.00
2022-11-26T07:45:41.532Z,99.39
2022-11-26T07:47:44.223Z,100.00
2022-11-26T07:49:46.942Z,99.93
2022-11-26T07:51:49.645Z,99.38
2022-11-26T07:53:53.092Z,99.19
2022-11-26T07:55:55.933Z,98.77
2022-11-26T07:57:58.827Z,99.09
2022-11-26T08:00:01.447Z,98.72
2022-11-26T08:02:05.173Z,99.10
2022-11-26T08:04:08.103Z,98.83
2022-11-26T08:06:13.667Z,98.51
2022-11-26T08:08:16.375Z,99.00
2022-11-26T08:10:19.210Z,99.53
2022-11-26T08:12:21.885Z,99.31
2022-11-26T08:14:24.474Z,99.10
2022-11-26T08:16:29.116Z,99.13
2022-11-26T08:18:32.057Z,99.39
2022-11-26T08:20:34.667Z,99.07
2022-11-26T08:22:37.349Z,99.19
2022-11-26T08:24:40.413Z,99.85
2022-11-26T08:26:44.807Z,100.00
2022-11-26T08:28:48.318Z,99.69
2022-11-26T08:30:51.049Z,100.00
2022-11-26T08:32:53.697Z,99.55
2022-11-26T08:34:56.381Z,100.00
2022-11-26T08:36:59.211Z,99.89
2022-11-26T08:39:01.853Z,99.88
2022-11-26T08:41:07.935Z,100.00
2022-11-26T08:43:10.544Z,99.84
2022-11-26T08:45:13.165Z,99.47
2022-11-26T08:47:15.802Z,99.88
2022-11-26T08:49:18.376Z,99.63
2022-11-26T08:51:20.921Z,99.65
2022-11-26T08:53:23.599Z,99.50
2022-11-26T08:55:27.085Z,99.77
2022-11-26T08:57:30.314Z,99.73
2022-11-26T08:59:33.547Z,100.00
2022-11-26T09:01:36.855Z,99.73
2022-11-26T09:03:40.690Z,99.87
2022-11-26T09:05:43.833Z,99.80
2022-11-26T09:07:49.103Z,99.97
2022-11-26T09:09:52.080Z,99.74
2022-11-26T09:12:00.212Z,100.00
2022-11-26T09:14:03.918Z,100.00
2022-11-26T09:16:06.752Z,100.00
2022-11-26T09:18:09.461Z,99.51
2022-11-26T09:20:12.871Z,99.33
2022-11-26T09:22:15.564Z,100.00
2022-11-26T09:24:18.495Z,99.60
2022-11-26T09:26:21.960Z,99.65
2022-11-26T09:28:24.573Z,99.73
2022-11-26T09:30:27.390Z,99.91
2022-11-26T09:32:34.040Z,99.76
2022-11-26T09:34:37.719Z,100.00
2022-11-26T09:36:40.729Z,99.96
2022-11-26T09:38:43.884Z,100.00
2022-11-26T09:40:59.822Z,100.00
2022-11-26T09:43:15.695Z,100.00
2022-11-26T09:45:48.263Z,100.00
2022-11-26T09:47:54.088Z,100.00
2022-11-26T09:50:09.210Z,100.00
2022-11-26T09:52:16.721Z,100.00
2022-11-26T09:54:23.763Z,100.00
2022-11-26T09:56:27.977Z,100.00
2022-11-26T09:58:40.771Z,100.00
2022-11-26T10:00:46.448Z,100.00
2022-11-26T10:02:52.717Z,100.00
2022-11-26T10:04:55.396Z,100.00
2022-11-26T10:07:22.934Z,100.00
2022-11-26T10:09:44.678Z,100.00
2022-11-26T10:12:04.036Z,100.00
2022-11-26T10:14:12.413Z,100.00
2022-11-26T10:16:28.519Z,100.00
2022-11-26T10:18:47.754Z,100.00
2022-11-26T10:21:02.375Z,100.00
2022-11-26T10:23:13.930Z,100.00
2022-11-26T10:25:20.719Z,100.00
2022-11-26T10:27:27.270Z,100.00
2022-11-26T10:29:42.849Z,100.00
2022-11-26T10:31:48.045Z,100.00
2022-11-26T10:34:04.290Z,100.00
2022-11-26T10:36:16.154Z,100.00
2022-11-26T10:38:19.313Z,100.00
2022-11-26T10:40:26.769Z,100.00
2022-11-26T10:42:44.513Z,100.00
2022-11-26T10:44:49.659Z,100.00
2022-11-26T10:46:52.359Z,100.00
2022-11-26T10:48:54.988Z,100.00
2022-11-26T10:51:07.417Z,100.00
2022-11-26T10:53:22.469Z,100.00
2022-11-26T10:55:28.059Z,100.00
2022-11-26T10:57:30.791Z,100.00
2022-11-26T10:59:41.049Z,100.00
2022-11-26T11:01:44.092Z,100.00
2022-11-26T11:04:13.899Z,100.00
2022-11-26T11:06:19.574Z,100.00
2022-11-26T11:08:33.169Z,100.00
2022-11-26T11:10:36.188Z,100.00
2022-11-26T11:12:40.943Z,100.00
2022-11-26T11:14:45.845Z,100.00
2022-11-26T11:16:48.851Z,100.00
2022-11-26T11:19:03.172Z,100.00
2022-11-26T11:21:06.669Z,100.00
2022-11-26T11:23:12.509Z,100.00
2022-11-26T11:25:23.922Z,100.00
2022-11-26T11:27:37.879Z,100.00
2022-11-26T11:29:40.800Z,100.00
2022-11-26T11:31:47.347Z,100.00
2022-11-26T11:33:51.772Z,100.00
2022-11-26T11:36:00.332Z,100.00
2022-11-26T11:38:03.156Z,100.00
2022-11-26T11:40:17.080Z,100.00
2022-11-26T11:42:30.321Z,100.00
2022-11-26T11:44:44.602Z,100.00
2022-11-26T11:47:13.112Z,100.00
2022-11-26T11:49:41.402Z,100.00
2022-11-26T11:52:12.232Z,100.00
2022-11-26T11:55:10.822Z,100.00
2022-11-26T11:58:09.821Z,100.00
2022-11-26T12:00:17.219Z,100.00
2022-11-26T12:02:32.403Z,100.00
2022-11-26T12:05:04.846Z,100.00
2022-11-26T12:07:25.839Z,100.00
2022-11-26T12:09:34.261Z,100.00
2022-11-26T12:12:12.850Z,100.00
2022-11-26T12:14:23.821Z,100.00
2022-11-26T12:16:32.601Z,100.00
2022-11-26T12:18:51.740Z,100.00
2022-11-26T12:20:59.852Z,100.00
2022-11-26T12:23:27.027Z,100.00
2022-11-26T12:25:37.880Z,100.00
2022-11-26T12:27:47.165Z,100.00
2022-11-26T12:30:15.005Z,100.00
2022-11-26T12:32:25.755Z,100.00
2022-11-26T12:34:41.340Z,100.00
2022-11-26T12:37:05.501Z,100.00
2022-11-26T12:39:19.337Z,100.00
2022-11-26T12:41:43.954Z,100.00
2022-11-26T12:44:11.878Z,100.00
2022-11-26T12:46:23.106Z,100.00
2022-11-26T12:48:43.594Z,100.00
2022-11-26T12:50:56.031Z,100.00
2022-11-26T12:53:27.041Z,100.00
2022-11-26T12:55:42.004Z,100.00
2022-11-26T12:57:55.776Z,100.00
2022-11-26T13:00:11.376Z,100.00
2022-11-26T13:02:31.806Z,100.00
2022-11-26T13:04:38.419Z,100.00
2022-11-26T13:06:44.167Z,100.00
2022-11-26T13:08:55.056Z,100.00
2022-11-26T13:11:18.781Z,100.00
2022-11-26T13:13:30.335Z,100.00
2022-11-26T13:16:03.787Z,100.00
2022-11-26T13:18:18.498Z,100.00
2022-11-26T13:20:45.374Z,100.00
2022-11-26T13:23:19.478Z,100.00
2022-11-26T13:25:58.749Z,100.00
2022-11-26T13:28:25.863Z,100.00
2022-11-26T13:30:46.702Z,100.00
2022-11-26T13:33:04.592Z,100.00
2022-11-26T13:35:40.873Z,100.00
2022-11-26T13:38:11.268Z,100.00
2022-11-26T13:40:19.576Z,100.00
2022-11-26T13:42:34.249Z,100.00
2022-11-26T13:44:54.607Z,100.00
2022-11-26T13:47:28.197Z,100.00
2022-11-26T13:49:52.711Z,100.00
2022-11-26T13:52:23.886Z,100.00
2022-11-26T13:54:47.249Z,100.00
2022-11-26T13:56:57.302Z,100.00
2022-11-26T13:59:26.843Z,100.00
2022-11-26T14:01:41.525Z,100.00
2022-11-26T14:03:47.246Z,100.00
2022-11-26T14:05:49.737Z,100.00
2022-11-26T14:08:30.709Z,100.00
2022-11-26T14:10:38.966Z,100.00
2022-11-26T14:13:03.132Z,100.00
2022-11-26T14:15:41.106Z,100.00
2022-11-26T14:17:57.023Z,100.00
2022-11-26T14:20:00.183Z,100.00
2022-11-26T14:22:03.938Z,100.00
2022-11-26T14:24:06.758Z,100.00
2022-11-26T14:26:19.329Z,100.00
2022-11-26T14:28:22.536Z,100.00
2022-11-26T14:30:28.508Z,100.00
2022-11-26T14:32:37.808Z,100.00
2022-11-26T14:34:49.862Z,100.00
2022-11-26T14:36:54.023Z,100.00
2022-11-26T14:39:10.122Z,100.00
2022-11-26T14:41:12.795Z,100.00
2022-11-26T14:43:20.286Z,100.00
2022-11-26T14:45:24.406Z,100.00
2022-11-26T14:47:27.461Z,100.00
2022-11-26T14:49:32.477Z,100.00
2022-11-26T14:51:35.705Z,100.00
2022-11-26T14:53:47.693Z,100.00
2022-11-26T14:55:50.717Z,100.00
2022-11-26T14:58:04.867Z,100.00
2022-11-26T15:00:12.922Z,100.00
2022-11-26T15:02:22.557Z,100.00
2022-11-26T15:04:30.535Z,100.00
2022-11-26T15:06:38.657Z,100.00
2022-11-26T15:08:41.359Z,100.00
2022-11-26T15:10:49.707Z,100.00
2022-11-26T15:12:53.727Z,100.00
2022-11-26T15:14:59.180Z,100.00
2022-11-26T15:17:03.225Z,100.00
2022-11-26T15:19:07.251Z,100.00
2022-11-26T15:21:16.991Z,100.00
2022-11-26T15:23:28.493Z,100.00
2022-11-26T15:25:34.718Z,100.00
2022-11-26T15:27:41.322Z,100.00
2022-11-26T15:29:50.209Z,100.00
2022-11-26T15:31:52.784Z,100.00
2022-11-26T15:33:55.465Z,100.00
2022-11-26T15:35:58.545Z,100.00
2022-11-26T15:38:01.308Z,100.00
2022-11-26T15:40:22.751Z,100.00
2022-11-26T15:42:30.117Z,100.00
2022-11-26T15:44:40.533Z,100.00
2022-11-26T15:46:49.478Z,100.00
2022-11-26T15:48:59.346Z,100.00
2022-11-26T15:51:04.810Z,100.00
2022-11-26T15:53:17.547Z,100.00
2022-11-26T15:55:26.561Z,100.00
2022-11-26T15:57:33.874Z,100.00
2022-11-26T15:59:49.956Z,100.00
2022-11-26T16:01:53.158Z,100.00
2022-11-26T16:03:57.094Z,100.00
2022-11-26T16:06:01.269Z,100.00
2022-11-26T16:08:28.250Z,100.00
2022-11-26T16:10:35.762Z,100.00
2022-11-26T16:12:44.493Z,100.00
2022-11-26T16:14:47.031Z,100.00
2022-11-26T16:16:52.913Z,100.00
2022-11-26T16:19:01.210Z,100.00
2022-11-26T16:21:30.782Z,100.00
2022-11-26T16:23:33.615Z,100.00
2022-11-26T16:25:37.483Z,100.00
2022-11-26T16:27:40.097Z,100.00
2022-11-26T16:29:42.633Z,100.00
2022-11-26T16:31:45.431Z,100.00
2022-11-26T16:33:48.001Z,100.00
2022-11-26T16:35:50.569Z,100.00
2022-11-26T16:37:53.782Z,100.00
2022-11-26T16:40:26.413Z,100.00
2022-11-26T16:42:30.512Z,100.00
2022-11-26T16:44:33.064Z,100.00
2022-11-26T16:46:38.008Z,100.00
2022-11-26T16:48:41.746Z,100.00
2022-11-26T16:50:44.596Z,100.00
2022-11-26T16:52:47.660Z,100.00
2022-11-26T16:54:50.519Z,100.00
2022-11-26T16:56:56.086Z,100.00
2022-11-26T16:59:00.134Z,100.00
2022-11-26T17:01:02.854Z,100.00
2022-11-26T17:03:08.093Z,100.00
2022-11-26T17:05:13.501Z,100.00
2022-11-26T17:07:21.050Z,100.00
2022-11-26T17:09:23.589Z,100.00
2022-11-26T17:11:26.801Z,100.00
2022-11-26T17:13:31.198Z,100.00
2022-11-26T17:15:33.971Z,100.00
2022-11-26T17:17:36.713Z,100.00
2022-11-26T17:19:39.452Z,100.00
2022-11-26T17:21:42.576Z,100.00
2022-11-26T17:23:45.196Z,100.00
2022-11-26T17:25:53.441Z,100.00
2022-11-26T17:27:56.125Z,100.00
2022-11-26T17:29:58.637Z,100.00
2022-11-26T17:32:01.531Z,100.00
2022-11-26T17:34:04.245Z,100.00
2022-11-26T17:36:16.571Z,100.00
2022-11-26T17:38:21.977Z,100.00
2022-11-26T17:40:25.165Z,100.00
2022-11-26T17:42:32.173Z,100.00
2022-11-26T17:44:37.646Z,100.00
2022-11-26T17:47:09.014Z,100.00
2022-11-26T17:49:04.653Z,100.00
2022-11-26T17:51:07.548Z,100.00
2022-11-26T17:53:10.210Z,100.00
2022-11-26T17:55:13.712Z,100.00
2022-11-26T17:57:17.310Z,100.00
2022-11-26T17:59:21.922Z,100.00
2022-11-26T18:01:26.785Z,100.00
2022-11-26T18:03:29.483Z,100.00
2022-11-26T18:05:32.096Z,100.00
2022-11-26T18:07:42.881Z,100.00
2022-11-26T18:09:47.071Z,100.00
2022-11-26T18:11:53.462Z,100.00
2022-11-26T18:13:56.088Z,100.00
2022-11-26T18:16:01.746Z,100.00
2022-11-26T18:18:04.718Z,100.00
2022-11-26T18:20:07.955Z,100.00
2022-11-26T18:22:14.473Z,100.00
2022-11-26T18:24:17.289Z,100.00
2022-11-26T18:26:19.953Z,100.00
2022-11-26T18:28:22.539Z,100.00
2022-11-26T18:30:25.486Z,100.00
2022-11-26T18:32:28.176Z,100.00
2022-11-26T18:34:30.730Z,100.00
2022-11-26T18:36:33.357Z,100.00
2022-11-26T18:38:37.944Z,100.00
2022-11-26T18:40:40.549Z,100.00
2022-11-26T18:42:44.101Z,100.00
2022-11-26T18:44:46.714Z,100.00
2022-11-26T18:46:49.344Z,100.00
2022-11-26T18:48:52.331Z,100.00
2022-11-26T18:50:58.070Z,100.00
2022-11-26T18:53:00.748Z,100.00
2022-11-26T18:55:05.666Z,100.00
2022-11-26T18:57:08.679Z,100.00
2022-11-26T18:59:14.702Z,100.00
2022-11-26T19:01:29.764Z,100.00
2022-11-26T19:03:33.743Z,100.00
2022-11-26T19:05:40.157Z,100.00
2022-11-26T19:07:44.144Z,100.00
2022-11-26T19:10:07.485Z,100.00
2022-11-26T19:12:12.993Z,100.00
2022-11-26T19:14:16.532Z,100.00
2022-11-26T19:16:20.182Z,100.00
2022-11-26T19:18:22.813Z,100.00
2022-11-26T19:20:25.370Z,100.00
2022-11-26T19:22:27.925Z,100.00
2022-11-26T19:24:30.796Z,100.00
2022-11-26T19:26:34.075Z,100.00
2022-11-26T19:28:36.622Z,100.00
2022-11-26T19:30:39.303Z,100.00
2022-11-26T19:32:42.106Z,100.00
2022-11-26T19:34:44.866Z,100.00
2022-11-26T19:36:49.180Z,100.00
2022-11-26T19:38:56.624Z,100.00
2022-11-26T19:41:00.625Z,100.00
2022-11-26T19:43:03.256Z,100.00
2022-11-26T19:45:06.285Z,100.00
2022-11-26T19:47:28.905Z,100.00
2022-11-26T19:49:31.535Z,100.00
2022-11-26T19:51:34.192Z,100.00
2022-11-26T19:53:38.139Z,100.00
2022-11-26T19:55:40.945Z,100.00
2022-11-26T19:57:43.570Z,100.00
2022-11-26T19:59:46.249Z,100.00
2022-11-26T20:01:49.272Z,100.00
2022-11-26T20:03:52.373Z,100.00
2022-11-26T20:05:54.952Z,100.00
2022-11-26T20:07:57.747Z,100.00
2022-11-26T20:10:00.387Z,100.00
2022-11-26T20:12:03.048Z,100.00
2022-11-26T20:14:09.699Z,100.00
2022-11-26T20:16:16.006Z,100.00
2022-11-26T20:18:18.578Z,100.00
2022-11-26T20:20:21.401Z,100.00
2022-11-26T20:22:27.769Z,100.00
2022-11-26T20:24:31.069Z,100.00
2022-11-26T20:26:39.157Z,100.00
2022-11-26T20:28:41.763Z,100.00
2022-11-26T20:30:44.323Z,100.00
2022-11-26T20:32:49.270Z,100.00
2022-11-26T20:34:51.849Z,99.98
2022-11-26T20:36:54.460Z,100.00
2022-11-26T20:39:00.396Z,99.69
2022-11-26T20:41:17.940Z,99.44
2022-11-26T20:43:20.534Z,99.47
2022-11-26T20:45:23.185Z,99.82
2022-11-26T20:47:25.736Z,99.36
2022-11-26T20:49:33.416Z,99.23
2022-11-26T20:51:37.856Z,99.81
2022-11-26T20:53:41.777Z,99.44
2022-11-26T20:55:53.329Z,99.84
2022-11-26T20:57:56.413Z,99.77
2022-11-26T20:59:59.092Z,100.00
2022-11-26T21:02:01.801Z,100.00
2022-11-26T21:04:04.940Z,100.00
2022-11-26T21:06:07.829Z,100.00
2022-11-26T21:08:10.813Z,100.00
2022-11-26T21:10:14.802Z,100.00
2022-11-26T21:12:17.421Z,100.00
2022-11-26T21:14:20.026Z,100.00
2022-11-26T21:16:23.577Z,100.00
2022-11-26T21:18:26.399Z,100.00
2022-11-26T21:20:33.428Z,100.00
2022-11-26T21:22:39.083Z,100.00
2022-11-26T21:24:41.725Z,100.00
2022-11-26T21:26:44.378Z,100.00
2022-11-26T21:28:54.622Z,100.00
2022-11-26T21:30:58.537Z,100.00
2022-11-26T21:33:08.787Z,100.00
2022-11-26T21:35:12.158Z,100.00
2022-11-26T21:37:14.760Z,100.00
2022-11-26T21:39:17.437Z,100.00
2022-11-26T21:41:21.082Z,100.00
2022-11-26T21:43:23.656Z,100.00
2022-11-26T21:45:27.912Z,100.00
2022-11-26T21:47:30.656Z,100.00
2022-11-26T21:49:33.454Z,100.00
2022-11-26T21:51:36.229Z,100.00
2022-11-26T21:53:39.227Z,100.00
2022-11-26T21:55:42.017Z,100.00
2022-11-26T21:57:44.661Z,99.95
2022-11-26T21:59:47.366Z,100.00
2022-11-26T22:01:50.121Z,100.00
2022-11-26T22:03:54.719Z,100.00
2022-11-26T22:05:59.874Z,100.00
2022-11-26T22:08:03.193Z,100.00
2022-11-26T22:10:07.628Z,99.93
2022-11-26T22:12:11.600Z,100.00
2022-11-26T22:14:16.144Z,100.00
2022-11-26T22:16:20.593Z,99.80
2022-11-26T22:18:23.309Z,99.08
2022-11-26T22:20:26.237Z,99.30
2022-11-26T22:22:28.842Z,98.99
2022-11-26T22:24:31.546Z,98.91
2022-11-26T22:26:34.618Z,99.12
2022-11-26T22:28:38.852Z,98.77
2022-11-26T22:30:41.479Z,98.80
2022-11-26T22:32:44.261Z,98.92
2022-11-26T22:34:46.864Z,98.25
2022-11-26T22:36:49.502Z,98.48
2022-11-26T22:38:52.718Z,98.74
2022-11-26T22:40:55.368Z,98.74
2022-11-26T22:42:59.049Z,98.48
2022-11-26T22:45:01.805Z,99.30
2022-11-26T22:47:06.260Z,98.45
2022-11-26T22:49:13.203Z,98.50
2022-11-26T22:51:15.758Z,98.37
2022-11-26T22:53:18.611Z,98.16
2022-11-26T22:55:21.336Z,98.14
2022-11-26T22:57:25.652Z,98.24
2022-11-26T22:59:28.371Z,97.83
2022-11-26T23:01:33.748Z,97.65
2022-11-26T23:03:38.366Z,97.56
2022-11-26T23:05:41.269Z,97.85
2022-11-26T23:07:43.927Z,97.74
2022-11-26T23:09:47.095Z,97.13
2022-11-26T23:11:51.021Z,97.19
2022-11-26T23:13:54.649Z,97.58
2022-11-26T23:15:57.280Z,97.43
2022-11-26T23:18:00.018Z,97.29
2022-11-26T23:20:02.874Z,97.68
2022-11-26T23:22:06.469Z,97.32
2022-11-26T23:24:09.708Z,97.37
2022-11-26T23:26:19.451Z,97.66
2022-11-26T23:28:25.887Z,97.52
2022-11-26T23:30:29.136Z,97.72
2022-11-26T23:32:32.697Z,97.64
2022-11-26T23:34:35.385Z,97.79
2022-11-26T23:36:38.854Z,97.64
2022-11-26T23:38:41.658Z,97.87
2022-11-26T23:40:44.296Z,97.50
2022-11-26T23:42:47.010Z,97.88
2022-11-26T23:44:49.641Z,97.55
2022-11-26T23:46:52.432Z,97.42
2022-11-26T23:48:55.884Z,97.82
2022-11-26T23:50:59.068Z,97.60
2022-11-26T23:53:01.674Z,97.82
2022-11-26T23:55:04.547Z,98.16
2022-11-26T23:57:11.823Z,97.70
2022-11-26T23:59:18.617Z,97.66
